Time;durP1;ratioP1;P1;durP2;ratioP2;P2;SDS_P1;SDS_P2;PMS_P1;PMS_P2;Temp;Humidity;BMP_temperature;BMP_pressure;BME280_temperature;BME280_humidity;BME280_pressure;Samples;Min_cycle;Max_cycle;Signal;HPM_P1;HPM_P2
2021/05/02 17:17:12;;;;;;;2.45;1.67;;;;;;;;;;5149546;27;20313;-73
2021/05/02 17:19:38;;;;;;;3.72;1.70;;;;;;;;;;5149337;27;20292;-74
2021/05/02 17:22:04;;;;;;;2.13;1.50;;;;;;;;;;5131577;27;20625;-74
2021/05/02 17:24:30;;;;;;;4.15;1.42;;;;;;;;;;5132180;27;20602;-74
2021/05/02 17:26:56;;;;;;;2.13;1.20;;;;;;;;;;5128985;27;20072;-73
2021/05/02 17:29:23;;;;;;;4.60;1.25;;;;;;;;;;5128935;27;20027;-72
2021/05/02 17:31:50;;;;;;;4.35;1.10;;;;;;;;;;5128641;27;20110;-71
2021/05/02 17:34:16;;;;;;;2.15;1.00;;;;;;;;;;5128343;27;20035;-72
2021/05/02 17:36:44;;;;;;;3.00;1.23;;;;;;;;;;5128679;27;20522;-71
2021/05/02 17:39:10;;;;;;;3.95;1.88;;;;;;;;;;5128987;28;20027;-71
2021/05/02 17:41:36;;;;;;;6.50;1.77;;;;;;;;;;5109925;28;20024;-70
2021/05/02 17:44:02;;;;;;;2.55;1.48;;;;;;;;;;5128832;27;20027;-71
2021/05/02 17:46:28;;;;;;;4.13;1.27;;;;;;;;;;5128648;27;20031;-72
2021/05/02 17:48:54;;;;;;;4.25;1.48;;;;;;;;;;5128884;28;20024;-72
2021/05/02 17:51:21;;;;;;;3.25;1.20;;;;;;;;;;5128067;28;20024;-72
2021/05/02 17:53:50;;;;;;;3.33;1.10;;;;;;;;;;5110313;28;20486;-72
2021/05/02 17:56:16;;;;;;;2.65;1.30;;;;;;;;;;5128407;27;20035;-73
2021/05/02 17:58:44;;;;;;;5.80;1.40;;;;;;;;;;5128762;27;20502;-72
2021/05/02 18:01:10;;;;;;;2.28;1.00;;;;;;;;;;5128191;28;20030;-72
2021/05/02 18:03:36;;;;;;;3.20;1.50;;;;;;;;;;5128481;27;20023;-73
2021/05/02 18:06:02;;;;;;;2.80;2.03;;;;;;;;;;5128510;27;20166;-72
2021/05/02 18:08:28;;;;;;;2.90;1.73;;;;;;;;;;5122451;27;20031;-71
2021/05/02 18:10:54;;;;;;;2.72;1.40;;;;;;;;;;5128539;27;20118;-72
2021/05/02 18:13:20;;;;;;;10.68;6.45;;;;;;;;;;5128415;27;20051;-72
2021/05/02 18:15:47;;;;;;;2.35;1.00;;;;;;;;;;5128709;28;20066;-71
2021/05/02 18:18:14;;;;;;;5.40;1.13;;;;;;;;;;5128624;28;20032;-72
2021/05/02 18:20:40;;;;;;;2.25;1.40;;;;;;;;;;5127785;28;20023;-71
2021/05/02 18:23:06;;;;;;;5.53;1.63;;;;;;;;;;5129366;27;20116;-72
2021/05/02 18:25:32;;;;;;;1.13;0.98;;;;;;;;;;5129019;28;20028;-72
2021/05/02 18:27:59;;;;;;;1.05;0.88;;;;;;;;;;5118083;28;20036;-71
2021/05/02 18:30:25;;;;;;;1.75;1.17;;;;;;;;;;5113675;28;20035;-71
2021/05/02 18:32:51;;;;;;;2.03;1.05;;;;;;;;;;5114111;28;20028;-71
2021/05/02 18:35:17;;;;;;;3.25;1.33;;;;;;;;;;5114096;28;20139;-71
2021/05/02 18:37:44;;;;;;;1.98;1.33;;;;;;;;;;5113877;28;20526;-72
2021/05/02 18:40:11;;;;;;;3.00;1.33;;;;;;;;;;5113537;28;20036;-70
2021/05/02 18:42:37;;;;;;;2.65;1.50;;;;;;;;;;5113917;28;20024;-76
2021/05/02 18:45:04;;;;;;;3.00;1.42;;;;;;;;;;5114383;28;20016;-79
2021/05/02 18:47:30;;;;;;;3.35;1.30;;;;;;;;;;5114253;28;20023;-71
2021/05/02 18:49:56;;;;;;;3.60;1.77;;;;;;;;;;5094749;28;20019;-71
2021/05/02 18:52:24;;;;;;;2.55;1.70;;;;;;;;;;5113950;28;20031;-70
2021/05/02 18:54:50;;;;;;;1.77;1.40;;;;;;;;;;5113658;28;20030;-70
2021/05/02 18:57:16;;;;;;;4.22;2.17;;;;;;;;;;5113622;28;20102;-71
2021/05/02 18:59:42;;;;;;;4.20;2.28;;;;;;;;;;5113103;28;20027;-72
2021/05/02 19:02:08;;;;;;;3.95;2.05;;;;;;;;;;5113785;28;20023;-70
2021/05/02 19:04:34;;;;;;;7.63;4.35;;;;;;;;;;5113476;28;20499;-75
2021/05/02 19:07:00;;;;;;;9.07;3.60;;;;;;;;;;5113071;28;20059;-75
2021/05/02 19:09:26;;;;;;;3.58;2.40;;;;;;;;;;5113594;28;20031;-75
2021/05/02 19:11:53;;;;;;;4.68;2.28;;;;;;;;;;5113193;28;20391;-75
2021/05/02 19:14:19;;;;;;;4.22;2.50;;;;;;;;;;5113406;28;20436;-74
2021/05/02 19:16:48;;;;;;;4.10;2.65;;;;;;;;;;5113428;28;20046;-75
2021/05/02 19:19:15;;;;;;;3.53;2.33;;;;;;;;;;5113585;28;20026;-74
2021/05/02 19:21:42;;;;;;;4.65;2.10;;;;;;;;;;5078109;28;20063;-74
2021/05/02 19:24:09;;;;;;;4.97;1.48;;;;;;;;;;5095855;28;20028;-75
2021/05/02 19:26:35;;;;;;;3.75;2.03;;;;;;;;;;5113466;28;20043;-75
2021/05/02 19:29:01;;;;;;;3.03;2.00;;;;;;;;;;5113332;28;20099;-72
2021/05/02 19:31:27;;;;;;;4.25;2.20;;;;;;;;;;5112906;28;20437;-71
2021/05/02 19:33:54;;;;;;;5.00;2.30;;;;;;;;;;5113153;28;20028;-72
2021/05/02 19:36:20;;;;;;;3.40;2.10;;;;;;;;;;5112609;28;20031;-71
2021/05/02 19:38:46;;;;;;;3.65;2.28;;;;;;;;;;5111937;28;20042;-70
2021/05/02 19:41:12;;;;;;;3.20;2.10;;;;;;;;;;5112292;28;20038;-70
2021/05/02 19:43:38;;;;;;;4.30;2.20;;;;;;;;;;5108250;27;20049;-71
2021/05/02 19:46:04;;;;;;;4.65;2.30;;;;;;;;;;5133900;27;20031;-71
2021/05/02 19:48:31;;;;;;;4.13;2.35;;;;;;;;;;5112816;27;20035;-70
2021/05/02 19:50:57;;;;;;;5.40;2.65;;;;;;;;;;5112515;28;20102;-71
2021/05/02 19:53:23;;;;;;;4.47;2.60;;;;;;;;;;5113528;28;20679;-70
2021/05/02 19:55:49;;;;;;;5.30;2.50;;;;;;;;;;5093948;28;20070;-70
2021/05/02 19:58:15;;;;;;;3.97;2.40;;;;;;;;;;5111374;28;20422;-71
2021/05/02 20:00:42;;;;;;;3.58;2.50;;;;;;;;;;5112125;28;20020;-70
2021/05/02 20:03:10;;;;;;;3.80;2.70;;;;;;;;;;5094760;28;20046;-71
2021/05/02 20:05:38;;;;;;;3.50;2.35;;;;;;;;;;5111747;28;20040;-71
2021/05/02 20:08:04;;;;;;;3.05;2.20;;;;;;;;;;5112465;28;20031;-71
2021/05/02 20:10:31;;;;;;;4.90;2.45;;;;;;;;;;5112415;28;20027;-71
2021/05/02 20:12:57;;;;;;;5.20;2.40;;;;;;;;;;5112719;28;20026;-71
2021/05/02 20:15:23;;;;;;;2.92;2.50;;;;;;;;;;5112580;28;20081;-70
2021/05/02 20:17:49;;;;;;;5.32;2.13;;;;;;;;;;5112599;28;20024;-70
2021/05/02 20:20:15;;;;;;;3.03;1.92;;;;;;;;;;5111776;28;20093;-72
2021/05/02 20:22:42;;;;;;;3.45;2.25;;;;;;;;;;5112809;28;20076;-69
2021/05/02 20:25:09;;;;;;;4.50;2.13;;;;;;;;;;5113049;28;20022;-72
2021/05/02 20:27:35;;;;;;;4.35;2.30;;;;;;;;;;5113528;28;20024;-70
2021/05/02 20:30:07;;;;;;;3.50;2.20;;;;;;;;;;5110322;28;20034;-69
2021/05/02 20:32:34;;;;;;;7.50;2.45;;;;;;;;;;5113246;28;20426;-69
2021/05/02 20:35:01;;;;;;;2.72;2.08;;;;;;;;;;5112982;28;20012;-69
2021/05/02 20:37:28;;;;;;;2.90;2.00;;;;;;;;;;5113021;28;20053;-71
2021/05/02 20:39:59;;;;;;;4.55;2.25;;;;;;;;;;5112156;28;20026;-70
2021/05/02 20:42:25;;;;;;;3.30;2.15;;;;;;;;;;5108799;28;20050;-69
2021/05/02 20:44:52;;;;;;;6.93;2.85;;;;;;;;;;5093818;28;20015;-69
2021/05/02 20:47:19;;;;;;;5.22;3.05;;;;;;;;;;5093518;28;20068;-70
2021/05/02 20:49:45;;;;;;;7.03;3.63;;;;;;;;;;5092917;28;20050;-71
2021/05/02 20:52:11;;;;;;;6.75;3.58;;;;;;;;;;5112154;28;20031;-70
2021/05/02 20:54:37;;;;;;;9.73;3.80;;;;;;;;;;5112059;28;20407;-70
2021/05/02 20:57:04;;;;;;;7.35;3.00;;;;;;;;;;5112188;28;20043;-71
2021/05/02 20:59:30;;;;;;;4.40;2.60;;;;;;;;;;5111596;28;20020;-69
2021/05/02 21:01:56;;;;;;;3.90;2.40;;;;;;;;;;5113081;28;20115;-73
2021/05/02 21:04:22;;;;;;;3.15;2.40;;;;;;;;;;5112108;28;20041;-71
2021/05/02 21:06:48;;;;;;;6.22;3.45;;;;;;;;;;5106906;28;20424;-71
2021/05/02 21:09:14;;;;;;;4.78;2.70;;;;;;;;;;5093663;28;20067;-71
2021/05/02 21:11:40;;;;;;;4.25;2.50;;;;;;;;;;5093912;28;20039;-70
2021/05/02 21:14:06;;;;;;;7.00;2.35;;;;;;;;;;5093127;28;20032;-70
2021/05/02 21:16:32;;;;;;;3.28;2.35;;;;;;;;;;5095527;28;20035;-72
2021/05/02 21:18:59;;;;;;;7.47;3.75;;;;;;;;;;5112786;28;20028;-72
2021/05/02 21:21:26;;;;;;;5.93;2.70;;;;;;;;;;5111439;28;20167;-72
2021/05/02 21:23:52;;;;;;;8.93;4.22;;;;;;;;;;5112412;28;20040;-72
2021/05/02 21:26:18;;;;;;;6.63;4.20;;;;;;;;;;5112266;28;20028;-73
2021/05/02 21:28:44;;;;;;;6.60;3.60;;;;;;;;;;5112430;28;20038;-73
2021/05/02 21:31:10;;;;;;;4.43;3.15;;;;;;;;;;5111652;28;20027;-73
2021/05/02 21:33:36;;;;;;;4.10;2.50;;;;;;;;;;5094379;28;20031;-73
2021/05/02 21:36:02;;;;;;;4.55;2.45;;;;;;;;;;5112389;28;20499;-72
2021/05/02 21:38:28;;;;;;;4.30;2.75;;;;;;;;;;5112242;28;20373;-72
2021/05/02 21:40:59;;;;;;;4.38;2.67;;;;;;;;;;5093668;28;20077;-71
2021/05/02 21:43:26;;;;;;;3.88;2.15;;;;;;;;;;5112422;28;20107;-72
2021/05/02 21:45:52;;;;;;;4.43;2.70;;;;;;;;;;5112437;28;20040;-72
2021/05/02 21:48:18;;;;;;;6.03;2.58;;;;;;;;;;5111990;28;20050;-72
2021/05/02 21:50:45;;;;;;;2.58;1.95;;;;;;;;;;5111330;28;20032;-72
2021/05/02 21:53:12;;;;;;;5.40;2.60;;;;;;;;;;5112485;28;20067;-72
2021/05/02 21:55:38;;;;;;;3.08;2.40;;;;;;;;;;5112364;28;20073;-72
2021/05/02 21:58:04;;;;;;;4.97;3.10;;;;;;;;;;5111791;28;20063;-70
2021/05/02 22:00:46;;;;;;;3.67;2.58;;;;;;;;;;5111749;28;20054;-72
2021/05/02 22:03:12;;;;;;;3.35;2.33;;;;;;;;;;5114869;28;20046;-72
2021/05/02 22:05:40;;;;;;;9.38;4.20;;;;;;;;;;5115765;28;20047;-71
2021/05/02 22:08:07;;;;;;;9.68;4.30;;;;;;;;;;5115477;28;20024;-72
2021/05/02 22:10:33;;;;;;;10.60;3.92;;;;;;;;;;5115333;28;20039;-71
2021/05/02 22:12:59;;;;;;;5.38;3.42;;;;;;;;;;5115850;28;20122;-71
2021/05/02 22:15:26;;;;;;;7.65;3.90;;;;;;;;;;5115492;28;20445;-70
2021/05/02 22:17:52;;;;;;;6.10;4.05;;;;;;;;;;5115391;28;20015;-72
2021/05/02 22:20:18;;;;;;;6.38;4.53;;;;;;;;;;5114724;28;20065;-72
2021/05/02 22:22:44;;;;;;;6.90;4.47;;;;;;;;;;5115787;28;20027;-72
2021/05/02 22:25:11;;;;;;;5.40;3.63;;;;;;;;;;5115693;28;20383;-72
2021/05/02 22:27:37;;;;;;;7.72;3.60;;;;;;;;;;5115392;28;20494;-72
2021/05/02 22:30:04;;;;;;;7.53;3.40;;;;;;;;;;5114881;28;20055;-72
2021/05/02 22:32:31;;;;;;;6.03;3.50;;;;;;;;;;5115556;28;20450;-72
2021/05/02 22:34:57;;;;;;;6.38;3.05;;;;;;;;;;5115532;28;20051;-72
2021/05/02 22:37:23;;;;;;;3.78;2.83;;;;;;;;;;5116920;28;20055;-72
2021/05/02 22:39:49;;;;;;;6.32;3.47;;;;;;;;;;5115122;28;20082;-72
2021/05/02 22:42:17;;;;;;;6.05;3.30;;;;;;;;;;5116919;28;20076;-70
2021/05/02 22:44:43;;;;;;;7.35;3.83;;;;;;;;;;5116679;28;20023;-70
2021/05/02 22:47:10;;;;;;;5.75;3.70;;;;;;;;;;5114900;28;20032;-69
2021/05/02 22:49:37;;;;;;;5.45;3.20;;;;;;;;;;5114656;28;20027;-69
2021/05/02 22:52:03;;;;;;;5.70;3.58;;;;;;;;;;5114801;28;20110;-70
2021/05/02 22:54:29;;;;;;;5.55;3.33;;;;;;;;;;5114803;28;20062;-70
2021/05/02 22:56:55;;;;;;;8.60;4.40;;;;;;;;;;5114560;28;20525;-71
2021/05/02 22:59:21;;;;;;;8.30;4.25;;;;;;;;;;5115240;28;20023;-71
2021/05/02 23:01:48;;;;;;;7.43;4.55;;;;;;;;;;5114476;28;20024;-71
2021/05/02 23:04:14;;;;;;;9.68;4.70;;;;;;;;;;5114545;28;20031;-71
2021/05/02 23:06:40;;;;;;;6.22;4.63;;;;;;;;;;5114105;28;20023;-70
2021/05/02 23:09:07;;;;;;;6.40;4.10;;;;;;;;;;5114712;28;20139;-71
2021/05/02 23:11:33;;;;;;;6.10;4.13;;;;;;;;;;5113987;28;20024;-71
2021/05/02 23:13:59;;;;;;;5.32;3.75;;;;;;;;;;5114300;28;20059;-70
